x

Eastern Caribbean - 190 Nm Nne Of Curacao (42059) Wave Buoy

6:50am - Sat 25th Oct 2014 All times are AST. -4 hours from GMT.

  • Sig Wave height 3.9ft
  • Peak Period 6s
  • Average Period 5s
  • Wind
    13mph, 16mph gusts
  • Sea Temp 84°f
  • Air Temp 83°f
  • Sea Pressure 1011.3mb
  • Eastern Caribbean - 190 Nm Nne Of Curacao
  • Eastern Caribbean - 190 Nm Nne Of Curacao

More Historic Weather Station data

Upgrade to MSW Pro to gain access to the past 30 days of data for over 8000 Wavebouys and Weather Stations around the globe.

Join Pro

Comparision Forecast

View Surf forecast
   
Sat 10/25 6:50am 4ft 6s 5s 13 16 mph 1011.3mb 84f 83f
5:50am 4.5ft 6s 5s 13 16 mph 1010.5mb 84f 83f
4:50am 4.5ft 6s 5s 13 16 mph 1009.8mb 84f 83f
3:50am 4.5ft 6s 5s 16 20 mph 1009.6mb 84f 83f
2:50am 4.5ft 6s 5s 16 20 mph 1009.6mb 84f 84f
1:50am 4.5ft 6s 5s 16 20 mph 1010mb 84f 84f
12:50am 4.5ft 6s 5s 18 20 mph 1010.8mb 84f 84f
Fri 10/24 11:50pm 4.5ft 6s 5s 16 18 mph 1011.1mb 84f 84f
10:50pm 4.5ft 7s 5s 18 22 mph 1011.1mb 84f 84f
9:50pm 4.5ft 6s 5s 18 22 mph 1010.9mb 84f 84f
8:50pm 5ft 7s 5s 18 20 mph 1010.6mb 84f 84f
7:50pm 4.5ft 6s 5s 16 20 mph 1010mb 84f 83f
6:50pm 5.5ft 7s 5s 18 20 mph 1009.5mb 84f 83f
5:50pm 5ft 7s 5s 13 18 mph 1009.4mb 84f 83f
4:50pm 5.5ft 7s 5s 13 16 mph 1009mb 84f 83f
3:50pm 5.5ft 7s 5s 13 18 mph 1008.9mb 84f 83f
2:50pm 6ft 7s 5s 20 25 mph 1009.5mb 84f 82f
1:50pm 6ft 7s 5s 20 25 mph 1010.4mb 84f 83f
12:50pm 6ft 7s 5s 22 27 mph 1011.3mb 84f 84f
11:50am 6ft 7s 5s 22 27 mph 1012mb 84f 84f
10:50am 5ft 7s 5s 22 27 mph 1012.9mb 84f 84f
9:50am 4.5ft 7s 5s 22 31 mph 1012.9mb 84f 84f
8:50am 4.5ft 6s 5s 20 25 mph 1012.6mb 84f 84f
7:50am 4.5ft 6s 5s 20 25 mph 1012mb 84f 84f
6:50am 4.5ft 7s 5s 18 22 mph 1011.1mb 84f 84f
5:50am 3.5ft 6s 5s 18 20 mph 1010.3mb 84f 83f
4:50am 4ft 7s 5s 16 20 mph 1010mb 84f 83f
3:50am 4ft 6s 5s 16 18 mph 1010.2mb 84f 83f
2:50am 4.5ft 7s 5s 16
mph
1010.6mb 84f 83f
1:50am 4.5ft 6s 5s 13 18 mph 1010.9mb 84f 84f
12:50am 4.5ft 6s 5s 16 18 mph 1011.7mb 84f 84f
Thu 10/23 11:50pm 4.5ft 6s 5s 16 20 mph 1012.4mb 84f 84f
10:50pm 4.5ft 6s 5s 16 18 mph 1012.3mb 84f 84f
9:50pm 3.5ft 6s 5s 16 20 mph 1012mb 84f 84f
8:50pm 3.5ft 6s 5s 16 18 mph 1011.6mb 84f 84f
7:50pm 3.5ft 6s 5s 13 16 mph 1010.7mb 85f 84f
6:50pm 3.5ft 6s 5s 13 18 mph 1010.4mb 85f 84f
5:50pm 3ft 6s 5s 13 18 mph 1010.3mb 85f 82f
4:50pm 3.5ft 5s 5s 13 16 mph 1009.8mb 85f 84f
3:50pm 3.5ft 5s 5s 11 13 mph 1009.8mb 85f 84f
2:50pm 3.5ft 5s 5s 13 18 mph 1009.8mb 85f 84f
1:50pm 3.5ft 5s 5s 13 16 mph 1010.6mb 85f 84f
12:50pm 3.5ft 5s 4s 13 16 mph 1011.2mb 85f 84f
11:50am 3.5ft 5s 4s 13 18 mph 1012.1mb 85f 84f
10:50am 3.5ft 5s 4s 16 18 mph 1012.8mb 84f 84f
9:50am 3.5ft 5s 4s 18 20 mph 1012.9mb 84f 84f
8:50am 3ft 6s 4s 16 18 mph 1012.4mb 84f 84f
7:50am 3.5ft 6s 5s 13 16 mph 1012.3mb 84f 84f
6:50am 3ft 5s 5s 16 18 mph 1011.5mb 84f 83f
5:50am 3ft 5s 4s 13 16 mph 1010.8mb 84f 83f
4:50am 3ft 5s 5s 13 16 mph 1010.5mb 84f 83f
3:50am 3ft 5s 4s 13 16 mph 1010.8mb 84f 83f
2:50am 2.5ft 5s 4s 11 16 mph 1011.2mb 84f 83f
1:50am 3ft 5s 4s 11 13 mph 1011.5mb 84f 83f
12:50am 3ft 5s 4s 13 16 mph 1012.1mb 84f 83f
Wed 10/22 11:50pm 3.5ft 5s 5s 11 13 mph 1012.6mb 84f 84f
10:50pm 3ft 5s 4s 13 16 mph 1013mb 85f 84f
9:50pm 3.5ft 5s 5s 16 18 mph 1012.9mb 85f 84f
8:50pm 3ft 5s 4s 13 16 mph 1012.5mb 85f 84f
7:50pm 3ft 5s 5s 11 13 mph 1011.5mb 85f 84f
6:50pm 3ft 5s 5s 13 16 mph 1010.5mb 85f 84f
5:50pm 3.5ft 5s 5s 11 13 mph 1010mb 85f 84f
4:50pm 3.5ft 5s 5s 13 16 mph 1010mb 85f 84f
3:50pm 3.5ft 5s 5s 13 16 mph 1010.2mb 85f 84f
2:50pm 3.5ft 5s 4s 13 16 mph 1010.7mb 85f 84f
1:50pm 4ft 5s 5s 13 16 mph 1011.5mb 85f 84f
12:50pm 4ft 5s 5s 16 18 mph 1012.2mb 85f 84f
11:50am 3.5ft 5s 5s 16 20 mph 1013.1mb 84f 84f
10:50am 3.5ft 5s 5s 16 18 mph 1014.1mb 84f 84f
9:50am 3.5ft 5s 5s 16 18 mph 1014.2mb 84f 84f
8:50am 3.5ft 5s 5s 13 18 mph 1014mb 84f 84f
7:50am 3ft 14s 5s 13 16 mph 1013.3mb 84f 83f
6:50am 3ft 5s 5s 13 16 mph 1013mb 84f 83f
5:50am 3.5ft 5s 5s 13 16 mph 1012.1mb 84f 83f
4:50am 3.5ft 5s 5s 13 16 mph 1011.7mb 84f 83f
3:50am 3ft 14s 5s 13 16 mph 1011.6mb 84f 83f
2:50am 3ft 5s 4s 13 16 mph 1011.7mb 84f 83f
1:50am 3.5ft 4s 4s 16 18 mph 1012mb 84f 83f
12:50am 3.5ft 5s 4s 13 18 mph 1012.5mb 84f 83f
Tue 10/21 11:50pm 3.5ft 5s 5s 16 18 mph 1012.8mb 84f 84f
10:50pm 3.5ft 5s 5s 16 18 mph 1012.9mb 84f 83f
9:50pm 2.5ft 5s 4s 16 20 mph 1012.9mb 84f 84f
8:50pm 3ft 5s 5s 16 18 mph 1012.6mb 84f 84f
7:50pm 3ft 5s 5s 13 16 mph 1011.7mb 85f 84f
6:50pm 3ft 5s 5s 13 16 mph 1010.9mb 85f 83f
5:50pm 3ft 5s 5s 13 16 mph 1010.5mb 85f 83f
4:50pm 3ft 5s 5s 13 16 mph 1010.2mb 85f 84f
3:50pm 2.5ft 5s 5s 11 13 mph 1010.5mb 85f 84f
2:50pm 3ft 5s 4s 11 13 mph 1011mb 85f 84f
1:50pm 3ft 5s 4s 11 13 mph 1011.5mb 85f 84f
12:50pm 3ft 5s 4s 11 13 mph 1012.4mb 85f 84f